sensor_id;sensor_type;location;lat;lon;timestamp;P1;durP1;ratioP1;P2;durP2;ratioP2
67902;SDS011;54708;43.612;1.568;2022-10-16T00:00:34;10.45;;;7.18;;
67902;SDS011;54708;43.612;1.568;2022-10-16T00:03:01;9.23;;;6.97;;
67902;SDS011;54708;43.612;1.568;2022-10-16T00:05:27;10.10;;;7.03;;
67902;SDS011;54708;43.612;1.568;2022-10-16T00:07:52;12.18;;;7.10;;
67902;SDS011;54708;43.612;1.568;2022-10-16T00:10:18;10.02;;;6.68;;
67902;SDS011;54708;43.612;1.568;2022-10-16T00:12:43;8.20;;;7.40;;
67902;SDS011;54708;43.612;1.568;2022-10-16T00:15:09;7.43;;;6.65;;
67902;SDS011;54708;43.612;1.568;2022-10-16T00:17:34;10.43;;;7.63;;
67902;SDS011;54708;43.612;1.568;2022-10-16T00:20:00;11.48;;;7.15;;
67902;SDS011;54708;43.612;1.568;2022-10-16T00:22:25;8.00;;;6.50;;
67902;SDS011;54708;43.612;1.568;2022-10-16T00:24:51;7.97;;;7.18;;
67902;SDS011;54708;43.612;1.568;2022-10-16T00:27:16;10.23;;;8.20;;
67902;SDS011;54708;43.612;1.568;2022-10-16T00:29:42;9.40;;;6.78;;
67902;SDS011;54708;43.612;1.568;2022-10-16T00:32:07;11.77;;;7.47;;
67902;SDS011;54708;43.612;1.568;2022-10-16T00:34:33;9.02;;;7.18;;
67902;SDS011;54708;43.612;1.568;2022-10-16T00:36:58;11.68;;;6.97;;
67902;SDS011;54708;43.612;1.568;2022-10-16T00:39:23;8.77;;;6.25;;
67902;SDS011;54708;43.612;1.568;2022-10-16T00:41:49;11.38;;;7.35;;
67902;SDS011;54708;43.612;1.568;2022-10-16T00:47:19;14.10;;;8.95;;
67902;SDS011;54708;43.612;1.568;2022-10-16T00:49:46;7.82;;;6.55;;
67902;SDS011;54708;43.612;1.568;2022-10-16T00:52:12;9.23;;;7.05;;
67902;SDS011;54708;43.612;1.568;2022-10-16T00:54:38;8.38;;;7.47;;
67902;SDS011;54708;43.612;1.568;2022-10-16T00:57:04;10.05;;;7.10;;
67902;SDS011;54708;43.612;1.568;2022-10-16T00:59:32;9.00;;;7.85;;
67902;SDS011;54708;43.612;1.568;2022-10-16T01:02:03;13.25;;;6.95;;
67902;SDS011;54708;43.612;1.568;2022-10-16T01:04:31;9.15;;;6.90;;
67902;SDS011;54708;43.612;1.568;2022-10-16T01:28:28;9.95;;;7.78;;
67902;SDS011;54708;43.612;1.568;2022-10-16T01:30:59;11.70;;;7.70;;
67902;SDS011;54708;43.612;1.568;2022-10-16T01:33:45;9.75;;;7.28;;
67902;SDS011;54708;43.612;1.568;2022-10-16T01:36:13;10.38;;;7.95;;
67902;SDS011;54708;43.612;1.568;2022-10-16T01:38:41;7.63;;;6.53;;
67902;SDS011;54708;43.612;1.568;2022-10-16T01:41:19;10.80;;;7.50;;
67902;SDS011;54708;43.612;1.568;2022-10-16T01:43:48;9.90;;;7.07;;
67902;SDS011;54708;43.612;1.568;2022-10-16T01:46:16;11.20;;;7.93;;
67902;SDS011;54708;43.612;1.568;2022-10-16T01:48:43;8.30;;;7.05;;
67902;SDS011;54708;43.612;1.568;2022-10-16T01:51:10;10.05;;;7.15;;
67902;SDS011;54708;43.612;1.568;2022-10-16T01:53:37;11.90;;;7.78;;
67902;SDS011;54708;43.612;1.568;2022-10-16T01:56:05;9.50;;;7.57;;
67902;SDS011;54708;43.612;1.568;2022-10-16T01:58:35;8.13;;;7.32;;
67902;SDS011;54708;43.612;1.568;2022-10-16T02:01:03;10.57;;;7.60;;
67902;SDS011;54708;43.612;1.568;2022-10-16T02:03:29;8.45;;;7.50;;
67902;SDS011;54708;43.612;1.568;2022-10-16T02:05:56;10.40;;;7.68;;
67902;SDS011;54708;43.612;1.568;2022-10-16T02:08:24;10.45;;;8.15;;
67902;SDS011;54708;43.612;1.568;2022-10-16T02:10:51;9.48;;;7.93;;
67902;SDS011;54708;43.612;1.568;2022-10-16T02:13:21;12.50;;;8.05;;
67902;SDS011;54708;43.612;1.568;2022-10-16T02:15:49;10.80;;;7.10;;
67902;SDS011;54708;43.612;1.568;2022-10-16T02:18:14;11.05;;;7.53;;
67902;SDS011;54708;43.612;1.568;2022-10-16T02:20:43;12.88;;;7.38;;
67902;SDS011;54708;43.612;1.568;2022-10-16T02:23:17;7.45;;;6.75;;
67902;SDS011;54708;43.612;1.568;2022-10-16T02:25:46;12.38;;;8.00;;
67902;SDS011;54708;43.612;1.568;2022-10-16T02:28:19;11.23;;;7.88;;
67902;SDS011;54708;43.612;1.568;2022-10-16T02:30:57;9.68;;;7.60;;
67902;SDS011;54708;43.612;1.568;2022-10-16T02:33:25;13.57;;;8.52;;
67902;SDS011;54708;43.612;1.568;2022-10-16T02:35:52;11.80;;;8.73;;
67902;SDS011;54708;43.612;1.568;2022-10-16T02:38:18;14.60;;;9.30;;
67902;SDS011;54708;43.612;1.568;2022-10-16T02:40:45;12.90;;;8.13;;
67902;SDS011;54708;43.612;1.568;2022-10-16T02:43:11;12.38;;;9.25;;
67902;SDS011;54708;43.612;1.568;2022-10-16T02:45:37;13.27;;;8.60;;
67902;SDS011;54708;43.612;1.568;2022-10-16T02:48:02;15.52;;;9.38;;
67902;SDS011;54708;43.612;1.568;2022-10-16T02:50:28;13.65;;;8.90;;
67902;SDS011;54708;43.612;1.568;2022-10-16T02:52:53;15.40;;;9.20;;
67902;SDS011;54708;43.612;1.568;2022-10-16T02:55:19;12.52;;;8.40;;
67902;SDS011;54708;43.612;1.568;2022-10-16T02:57:44;13.18;;;9.07;;
67902;SDS011;54708;43.612;1.568;2022-10-16T03:00:11;11.40;;;7.63;;
67902;SDS011;54708;43.612;1.568;2022-10-16T03:02:38;11.02;;;8.80;;
67902;SDS011;54708;43.612;1.568;2022-10-16T03:05:04;11.07;;;8.45;;
67902;SDS011;54708;43.612;1.568;2022-10-16T03:07:29;10.75;;;8.77;;
67902;SDS011;54708;43.612;1.568;2022-10-16T03:09:55;12.55;;;9.10;;
67902;SDS011;54708;43.612;1.568;2022-10-16T03:12:20;13.50;;;8.55;;
67902;SDS011;54708;43.612;1.568;2022-10-16T03:14:46;13.85;;;9.27;;
67902;SDS011;54708;43.612;1.568;2022-10-16T03:17:12;14.63;;;9.90;;
67902;SDS011;54708;43.612;1.568;2022-10-16T03:19:38;11.43;;;9.10;;
67902;SDS011;54708;43.612;1.568;2022-10-16T03:22:03;12.45;;;8.88;;
67902;SDS011;54708;43.612;1.568;2022-10-16T03:24:29;17.20;;;8.65;;
67902;SDS011;54708;43.612;1.568;2022-10-16T03:26:54;16.75;;;10.55;;
67902;SDS011;54708;43.612;1.568;2022-10-16T03:29:19;17.27;;;9.32;;
67902;SDS011;54708;43.612;1.568;2022-10-16T03:31:45;14.45;;;9.63;;
67902;SDS011;54708;43.612;1.568;2022-10-16T03:34:10;22.42;;;10.27;;
67902;SDS011;54708;43.612;1.568;2022-10-16T03:36:36;13.90;;;9.93;;
67902;SDS011;54708;43.612;1.568;2022-10-16T03:39:01;14.52;;;9.23;;
67902;SDS011;54708;43.612;1.568;2022-10-16T03:41:27;12.60;;;9.75;;
67902;SDS011;54708;43.612;1.568;2022-10-16T03:43:52;11.15;;;8.73;;
67902;SDS011;54708;43.612;1.568;2022-10-16T03:46:17;15.43;;;9.02;;
67902;SDS011;54708;43.612;1.568;2022-10-16T03:48:43;15.77;;;9.63;;
67902;SDS011;54708;43.612;1.568;2022-10-16T03:51:08;12.63;;;9.60;;
67902;SDS011;54708;43.612;1.568;2022-10-16T03:53:33;13.75;;;10.25;;
67902;SDS011;54708;43.612;1.568;2022-10-16T03:55:59;13.35;;;9.48;;
67902;SDS011;54708;43.612;1.568;2022-10-16T03:58:25;13.13;;;9.50;;
67902;SDS011;54708;43.612;1.568;2022-10-16T04:00:50;13.43;;;9.18;;
67902;SDS011;54708;43.612;1.568;2022-10-16T04:03:16;19.50;;;10.85;;
67902;SDS011;54708;43.612;1.568;2022-10-16T04:05:42;15.57;;;10.70;;
67902;SDS011;54708;43.612;1.568;2022-10-16T04:08:07;13.05;;;10.00;;
67902;SDS011;54708;43.612;1.568;2022-10-16T04:10:33;13.73;;;10.00;;
67902;SDS011;54708;43.612;1.568;2022-10-16T04:12:58;14.45;;;9.85;;
67902;SDS011;54708;43.612;1.568;2022-10-16T04:15:24;17.88;;;10.77;;
67902;SDS011;54708;43.612;1.568;2022-10-16T04:17:50;17.42;;;10.57;;
67902;SDS011;54708;43.612;1.568;2022-10-16T04:20:16;17.88;;;10.50;;
67902;SDS011;54708;43.612;1.568;2022-10-16T04:22:42;16.85;;;9.90;;
67902;SDS011;54708;43.612;1.568;2022-10-16T04:25:08;14.57;;;9.65;;
67902;SDS011;54708;43.612;1.568;2022-10-16T04:27:33;12.80;;;10.40;;
67902;SDS011;54708;43.612;1.568;2022-10-16T04:29:59;15.45;;;10.25;;
67902;SDS011;54708;43.612;1.568;2022-10-16T04:32:25;13.55;;;10.30;;
67902;SDS011;54708;43.612;1.568;2022-10-16T04:34:51;22.95;;;11.60;;
67902;SDS011;54708;43.612;1.568;2022-10-16T04:37:17;16.50;;;11.05;;
67902;SDS011;54708;43.612;1.568;2022-10-16T04:39:42;14.65;;;9.70;;
67902;SDS011;54708;43.612;1.568;2022-10-16T04:42:07;19.08;;;10.23;;
67902;SDS011;54708;43.612;1.568;2022-10-16T04:44:33;13.70;;;9.75;;
67902;SDS011;54708;43.612;1.568;2022-10-16T04:46:58;16.55;;;9.48;;
67902;SDS011;54708;43.612;1.568;2022-10-16T04:49:23;15.20;;;10.70;;
67902;SDS011;54708;43.612;1.568;2022-10-16T04:51:49;15.07;;;10.40;;
67902;SDS011;54708;43.612;1.568;2022-10-16T04:54:14;13.57;;;10.07;;
67902;SDS011;54708;43.612;1.568;2022-10-16T04:56:40;15.88;;;9.70;;
67902;SDS011;54708;43.612;1.568;2022-10-16T04:59:11;13.85;;;10.57;;
67902;SDS011;54708;43.612;1.568;2022-10-16T05:01:37;18.38;;;11.73;;
67902;SDS011;54708;43.612;1.568;2022-10-16T05:04:03;16.17;;;10.77;;
67902;SDS011;54708;43.612;1.568;2022-10-16T05:06:29;14.35;;;11.30;;
67902;SDS011;54708;43.612;1.568;2022-10-16T05:08:54;18.40;;;10.88;;
67902;SDS011;54708;43.612;1.568;2022-10-16T05:11:20;13.10;;;10.52;;
67902;SDS011;54708;43.612;1.568;2022-10-16T05:13:45;14.75;;;10.73;;
67902;SDS011;54708;43.612;1.568;2022-10-16T05:16:11;13.85;;;10.05;;
67902;SDS011;54708;43.612;1.568;2022-10-16T05:18:36;16.15;;;10.27;;
67902;SDS011;54708;43.612;1.568;2022-10-16T05:21:01;18.23;;;10.15;;
67902;SDS011;54708;43.612;1.568;2022-10-16T05:23:27;19.00;;;10.02;;
67902;SDS011;54708;43.612;1.568;2022-10-16T05:25:53;16.33;;;10.95;;
67902;SDS011;54708;43.612;1.568;2022-10-16T05:28:20;20.38;;;11.82;;
67902;SDS011;54708;43.612;1.568;2022-10-16T05:30:46;14.85;;;10.98;;
67902;SDS011;54708;43.612;1.568;2022-10-16T05:33:11;13.82;;;10.20;;
67902;SDS011;54708;43.612;1.568;2022-10-16T05:35:37;14.55;;;9.73;;
67902;SDS011;54708;43.612;1.568;2022-10-16T05:38:02;13.10;;;10.13;;
67902;SDS011;54708;43.612;1.568;2022-10-16T05:40:27;16.33;;;10.32;;
67902;SDS011;54708;43.612;1.568;2022-10-16T05:42:56;13.73;;;9.55;;
67902;SDS011;54708;43.612;1.568;2022-10-16T05:45:21;18.50;;;12.38;;
67902;SDS011;54708;43.612;1.568;2022-10-16T05:47:47;11.93;;;10.30;;
67902;SDS011;54708;43.612;1.568;2022-10-16T05:50:12;15.15;;;9.75;;
67902;SDS011;54708;43.612;1.568;2022-10-16T05:52:37;17.95;;;9.95;;
67902;SDS011;54708;43.612;1.568;2022-10-16T05:55:03;13.35;;;9.75;;
67902;SDS011;54708;43.612;1.568;2022-10-16T05:57:29;14.80;;;9.93;;
67902;SDS011;54708;43.612;1.568;2022-10-16T05:59:54;15.70;;;10.65;;
67902;SDS011;54708;43.612;1.568;2022-10-16T06:02:20;14.15;;;10.27;;
67902;SDS011;54708;43.612;1.568;2022-10-16T06:04:45;13.98;;;10.75;;
67902;SDS011;54708;43.612;1.568;2022-10-16T06:07:11;21.13;;;11.77;;
67902;SDS011;54708;43.612;1.568;2022-10-16T06:09:36;16.70;;;10.63;;
67902;SDS011;54708;43.612;1.568;2022-10-16T06:12:02;16.90;;;11.35;;
67902;SDS011;54708;43.612;1.568;2022-10-16T06:14:27;13.45;;;9.93;;
67902;SDS011;54708;43.612;1.568;2022-10-16T06:16:53;20.10;;;12.63;;
67902;SDS011;54708;43.612;1.568;2022-10-16T06:19:18;17.73;;;10.95;;
67902;SDS011;54708;43.612;1.568;2022-10-16T06:21:43;21.10;;;11.02;;
67902;SDS011;54708;43.612;1.568;2022-10-16T06:24:09;18.23;;;11.43;;
67902;SDS011;54708;43.612;1.568;2022-10-16T06:26:35;13.30;;;10.32;;
67902;SDS011;54708;43.612;1.568;2022-10-16T06:29:00;14.38;;;9.65;;
67902;SDS011;54708;43.612;1.568;2022-10-16T06:31:26;14.02;;;10.52;;
67902;SDS011;54708;43.612;1.568;2022-10-16T06:33:55;19.30;;;10.77;;
67902;SDS011;54708;43.612;1.568;2022-10-16T06:36:21;15.70;;;11.07;;
67902;SDS011;54708;43.612;1.568;2022-10-16T06:38:46;20.67;;;12.13;;
67902;SDS011;54708;43.612;1.568;2022-10-16T06:41:13;12.07;;;10.27;;
67902;SDS011;54708;43.612;1.568;2022-10-16T06:43:40;17.98;;;11.52;;
67902;SDS011;54708;43.612;1.568;2022-10-16T06:46:06;15.07;;;11.30;;
67902;SDS011;54708;43.612;1.568;2022-10-16T06:48:33;20.80;;;11.43;;
67902;SDS011;54708;43.612;1.568;2022-10-16T06:51:04;15.30;;;11.70;;
67902;SDS011;54708;43.612;1.568;2022-10-16T06:53:33;18.92;;;10.50;;
67902;SDS011;54708;43.612;1.568;2022-10-16T06:56:10;13.30;;;10.57;;
67902;SDS011;54708;43.612;1.568;2022-10-16T06:58:36;19.33;;;11.55;;
67902;SDS011;54708;43.612;1.568;2022-10-16T07:01:02;14.95;;;11.18;;
67902;SDS011;54708;43.612;1.568;2022-10-16T07:03:28;15.77;;;11.27;;
67902;SDS011;54708;43.612;1.568;2022-10-16T07:05:53;18.75;;;11.38;;
67902;SDS011;54708;43.612;1.568;2022-10-16T07:08:19;18.27;;;12.30;;
67902;SDS011;54708;43.612;1.568;2022-10-16T07:10:44;15.68;;;10.55;;
67902;SDS011;54708;43.612;1.568;2022-10-16T07:13:09;13.23;;;10.88;;
67902;SDS011;54708;43.612;1.568;2022-10-16T07:15:38;18.23;;;10.85;;
67902;SDS011;54708;43.612;1.568;2022-10-16T07:18:03;15.70;;;11.75;;
67902;SDS011;54708;43.612;1.568;2022-10-16T07:20:29;18.30;;;10.93;;
67902;SDS011;54708;43.612;1.568;2022-10-16T07:22:54;15.70;;;11.60;;
67902;SDS011;54708;43.612;1.568;2022-10-16T07:25:19;15.95;;;10.18;;
67902;SDS011;54708;43.612;1.568;2022-10-16T07:27:45;14.95;;;10.80;;
67902;SDS011;54708;43.612;1.568;2022-10-16T07:30:10;19.90;;;10.98;;
67902;SDS011;54708;43.612;1.568;2022-10-16T07:32:36;14.13;;;10.63;;
67902;SDS011;54708;43.612;1.568;2022-10-16T07:35:01;14.02;;;10.75;;
67902;SDS011;54708;43.612;1.568;2022-10-16T07:37:27;16.65;;;11.57;;
67902;SDS011;54708;43.612;1.568;2022-10-16T07:39:52;18.42;;;11.45;;
67902;SDS011;54708;43.612;1.568;2022-10-16T07:42:18;15.25;;;11.13;;
67902;SDS011;54708;43.612;1.568;2022-10-16T07:44:45;16.00;;;10.10;;
67902;SDS011;54708;43.612;1.568;2022-10-16T07:47:10;12.18;;;10.40;;
67902;SDS011;54708;43.612;1.568;2022-10-16T07:49:35;12.00;;;9.65;;
67902;SDS011;54708;43.612;1.568;2022-10-16T07:52:07;16.00;;;10.60;;
67902;SDS011;54708;43.612;1.568;2022-10-16T07:54:32;17.45;;;10.45;;
67902;SDS011;54708;43.612;1.568;2022-10-16T07:56:58;15.63;;;9.63;;
67902;SDS011;54708;43.612;1.568;2022-10-16T07:59:23;14.70;;;10.30;;
67902;SDS011;54708;43.612;1.568;2022-10-16T08:01:49;12.55;;;10.35;;
67902;SDS011;54708;43.612;1.568;2022-10-16T08:04:15;13.10;;;10.00;;
67902;SDS011;54708;43.612;1.568;2022-10-16T08:06:40;21.10;;;10.50;;
67902;SDS011;54708;43.612;1.568;2022-10-16T08:09:07;10.95;;;9.73;;
67902;SDS011;54708;43.612;1.568;2022-10-16T08:11:33;16.27;;;10.45;;
67902;SDS011;54708;43.612;1.568;2022-10-16T08:14:04;14.98;;;10.57;;
67902;SDS011;54708;43.612;1.568;2022-10-16T08:16:32;19.30;;;10.93;;
67902;SDS011;54708;43.612;1.568;2022-10-16T08:18:58;13.43;;;10.30;;
67902;SDS011;54708;43.612;1.568;2022-10-16T08:21:23;15.45;;;10.80;;
67902;SDS011;54708;43.612;1.568;2022-10-16T08:23:49;12.48;;;9.70;;
67902;SDS011;54708;43.612;1.568;2022-10-16T08:26:15;13.07;;;10.13;;
67902;SDS011;54708;43.612;1.568;2022-10-16T08:28:40;18.23;;;10.35;;
67902;SDS011;54708;43.612;1.568;2022-10-16T08:31:06;16.48;;;10.55;;
67902;SDS011;54708;43.612;1.568;2022-10-16T08:33:33;12.30;;;10.00;;
67902;SDS011;54708;43.612;1.568;2022-10-16T08:36:00;13.82;;;10.70;;
67902;SDS011;54708;43.612;1.568;2022-10-16T08:38:25;10.75;;;9.18;;
67902;SDS011;54708;43.612;1.568;2022-10-16T08:40:51;16.38;;;9.95;;
67902;SDS011;54708;43.612;1.568;2022-10-16T08:43:23;14.85;;;8.35;;
67902;SDS011;54708;43.612;1.568;2022-10-16T08:46:09;16.08;;;9.95;;
67902;SDS011;54708;43.612;1.568;2022-10-16T08:48:49;12.48;;;8.55;;
67902;SDS011;54708;43.612;1.568;2022-10-16T08:51:22;11.23;;;8.52;;
67902;SDS011;54708;43.612;1.568;2022-10-16T08:53:56;11.20;;;9.15;;
67902;SDS011;54708;43.612;1.568;2022-10-16T08:56:23;14.40;;;8.93;;
67902;SDS011;54708;43.612;1.568;2022-10-16T08:58:50;11.50;;;8.35;;
67902;SDS011;54708;43.612;1.568;2022-10-16T09:01:17;12.93;;;8.43;;
67902;SDS011;54708;43.612;1.568;2022-10-16T09:11:56;14.45;;;8.10;;
67902;SDS011;54708;43.612;1.568;2022-10-16T09:14:31;10.85;;;8.18;;
67902;SDS011;54708;43.612;1.568;2022-10-16T09:17:25;10.07;;;7.70;;
67902;SDS011;54708;43.612;1.568;2022-10-16T09:20:31;14.30;;;7.60;;
67902;SDS011;54708;43.612;1.568;2022-10-16T09:23:22;11.02;;;7.57;;
67902;SDS011;54708;43.612;1.568;2022-10-16T09:25:51;9.68;;;8.02;;
67902;SDS011;54708;43.612;1.568;2022-10-16T09:28:18;13.27;;;7.18;;
67902;SDS011;54708;43.612;1.568;2022-10-16T09:30:44;10.98;;;6.95;;
67902;SDS011;54708;43.612;1.568;2022-10-16T09:33:10;15.35;;;7.63;;
67902;SDS011;54708;43.612;1.568;2022-10-16T09:35:43;9.57;;;7.32;;
67902;SDS011;54708;43.612;1.568;2022-10-16T09:38:09;8.85;;;7.47;;
67902;SDS011;54708;43.612;1.568;2022-10-16T09:40:48;13.18;;;7.50;;
67902;SDS011;54708;43.612;1.568;2022-10-16T09:43:19;8.88;;;6.72;;
67902;SDS011;54708;43.612;1.568;2022-10-16T09:45:55;9.32;;;6.10;;
67902;SDS011;54708;43.612;1.568;2022-10-16T09:50:55;12.43;;;5.78;;
67902;SDS011;54708;43.612;1.568;2022-10-16T09:53:21;10.98;;;6.60;;
67902;SDS011;54708;43.612;1.568;2022-10-16T09:55:51;7.25;;;5.40;;
67902;SDS011;54708;43.612;1.568;2022-10-16T09:58:20;8.40;;;5.60;;
67902;SDS011;54708;43.612;1.568;2022-10-16T10:00:53;8.77;;;4.93;;
67902;SDS011;54708;43.612;1.568;2022-10-16T10:14:21;12.45;;;5.38;;
67902;SDS011;54708;43.612;1.568;2022-10-16T10:16:51;9.70;;;5.65;;
67902;SDS011;54708;43.612;1.568;2022-10-16T10:19:21;8.88;;;6.07;;
67902;SDS011;54708;43.612;1.568;2022-10-16T10:21:48;10.05;;;5.38;;
67902;SDS011;54708;43.612;1.568;2022-10-16T10:24:16;9.05;;;6.60;;
67902;SDS011;54708;43.612;1.568;2022-10-16T10:26:50;7.00;;;5.50;;
67902;SDS011;54708;43.612;1.568;2022-10-16T10:40:30;11.55;;;5.25;;
67902;SDS011;54708;43.612;1.568;2022-10-16T10:46:04;17.13;;;5.18;;
67902;SDS011;54708;43.612;1.568;2022-10-16T10:51:23;9.77;;;4.50;;
67902;SDS011;54708;43.612;1.568;2022-10-16T10:59:37;7.63;;;4.97;;
67902;SDS011;54708;43.612;1.568;2022-10-16T11:05:32;9.20;;;4.63;;
67902;SDS011;54708;43.612;1.568;2022-10-16T11:08:18;6.38;;;4.05;;
67902;SDS011;54708;43.612;1.568;2022-10-16T11:11:04;8.60;;;4.40;;
67902;SDS011;54708;43.612;1.568;2022-10-16T11:13:36;12.48;;;4.13;;
67902;SDS011;54708;43.612;1.568;2022-10-16T11:16:17;7.63;;;4.00;;
67902;SDS011;54708;43.612;1.568;2022-10-16T11:21:34;5.85;;;4.20;;
67902;SDS011;54708;43.612;1.568;2022-10-16T11:24:06;7.07;;;4.10;;
67902;SDS011;54708;43.612;1.568;2022-10-16T11:26:40;5.32;;;3.60;;
67902;SDS011;54708;43.612;1.568;2022-10-16T11:29:10;6.90;;;3.67;;
67902;SDS011;54708;43.612;1.568;2022-10-16T11:34:06;9.20;;;4.05;;
67902;SDS011;54708;43.612;1.568;2022-10-16T11:36:42;6.45;;;3.85;;
67902;SDS011;54708;43.612;1.568;2022-10-16T11:39:17;9.25;;;4.47;;
67902;SDS011;54708;43.612;1.568;2022-10-16T11:41:53;4.75;;;3.63;;
67902;SDS011;54708;43.612;1.568;2022-10-16T11:44:27;7.00;;;3.95;;
67902;SDS011;54708;43.612;1.568;2022-10-16T11:50:02;4.57;;;3.97;;
67902;SDS011;54708;43.612;1.568;2022-10-16T11:52:46;5.35;;;3.35;;
67902;SDS011;54708;43.612;1.568;2022-10-16T11:55:41;7.80;;;4.13;;
67902;SDS011;54708;43.612;1.568;2022-10-16T12:01:15;8.13;;;3.97;;
67902;SDS011;54708;43.612;1.568;2022-10-16T12:08:56;6.75;;;4.13;;
67902;SDS011;54708;43.612;1.568;2022-10-16T12:11:31;8.60;;;4.20;;
67902;SDS011;54708;43.612;1.568;2022-10-16T12:19:20;6.30;;;3.30;;
67902;SDS011;54708;43.612;1.568;2022-10-16T12:21:46;10.65;;;4.45;;
67902;SDS011;54708;43.612;1.568;2022-10-16T12:26:59;6.15;;;3.65;;
67902;SDS011;54708;43.612;1.568;2022-10-16T12:31:59;5.07;;;3.08;;
67902;SDS011;54708;43.612;1.568;2022-10-16T12:37:10;6.78;;;3.85;;
67902;SDS011;54708;43.612;1.568;2022-10-16T12:39:36;6.05;;;3.10;;
67902;SDS011;54708;43.612;1.568;2022-10-16T12:42:03;6.70;;;3.00;;
67902;SDS011;54708;43.612;1.568;2022-10-16T12:44:34;8.80;;;3.10;;
67902;SDS011;54708;43.612;1.568;2022-10-16T12:47:00;6.40;;;3.33;;
67902;SDS011;54708;43.612;1.568;2022-10-16T12:52:02;6.25;;;2.97;;
67902;SDS011;54708;43.612;1.568;2022-10-16T12:54:29;4.97;;;2.50;;
67902;SDS011;54708;43.612;1.568;2022-10-16T12:57:08;4.75;;;2.95;;
67902;SDS011;54708;43.612;1.568;2022-10-16T13:02:49;5.43;;;2.45;;
67902;SDS011;54708;43.612;1.568;2022-10-16T13:10:35;8.07;;;2.25;;
67902;SDS011;54708;43.612;1.568;2022-10-16T13:13:33;5.50;;;2.20;;
67902;SDS011;54708;43.612;1.568;2022-10-16T13:19:14;6.72;;;2.08;;
67902;SDS011;54708;43.612;1.568;2022-10-16T13:29:43;4.78;;;2.33;;
67902;SDS011;54708;43.612;1.568;2022-10-16T13:32:10;3.90;;;2.38;;
67902;SDS011;54708;43.612;1.568;2022-10-16T13:34:47;4.22;;;2.67;;
67902;SDS011;54708;43.612;1.568;2022-10-16T13:37:23;6.30;;;2.53;;
67902;SDS011;54708;43.612;1.568;2022-10-16T13:39:49;5.50;;;2.40;;
67902;SDS011;54708;43.612;1.568;2022-10-16T13:42:28;14.80;;;2.90;;
67902;SDS011;54708;43.612;1.568;2022-10-16T13:44:54;6.68;;;2.40;;
67902;SDS011;54708;43.612;1.568;2022-10-16T13:47:22;7.93;;;3.03;;
67902;SDS011;54708;43.612;1.568;2022-10-16T13:50:03;8.00;;;3.30;;
67902;SDS011;54708;43.612;1.568;2022-10-16T13:52:28;5.82;;;3.03;;
67902;SDS011;54708;43.612;1.568;2022-10-16T13:54:54;9.70;;;2.72;;
67902;SDS011;54708;43.612;1.568;2022-10-16T13:57:21;6.45;;;2.83;;
67902;SDS011;54708;43.612;1.568;2022-10-16T13:59:48;6.07;;;2.53;;
67902;SDS011;54708;43.612;1.568;2022-10-16T14:02:21;9.65;;;2.90;;
67902;SDS011;54708;43.612;1.568;2022-10-16T14:04:52;8.82;;;2.20;;
67902;SDS011;54708;43.612;1.568;2022-10-16T14:07:28;4.72;;;2.85;;
67902;SDS011;54708;43.612;1.568;2022-10-16T14:09:56;6.15;;;2.30;;
67902;SDS011;54708;43.612;1.568;2022-10-16T14:12:30;9.73;;;2.45;;
67902;SDS011;54708;43.612;1.568;2022-10-16T14:14:56;8.00;;;2.90;;
67902;SDS011;54708;43.612;1.568;2022-10-16T14:17:25;6.30;;;2.33;;
67902;SDS011;54708;43.612;1.568;2022-10-16T14:19:53;7.10;;;2.92;;
67902;SDS011;54708;43.612;1.568;2022-10-16T14:22:30;13.27;;;3.17;;
67902;SDS011;54708;43.612;1.568;2022-10-16T14:27:59;14.33;;;2.53;;
67902;SDS011;54708;43.612;1.568;2022-10-16T14:30:30;6.60;;;2.45;;
67902;SDS011;54708;43.612;1.568;2022-10-16T14:32:57;11.77;;;2.53;;
67902;SDS011;54708;43.612;1.568;2022-10-16T14:35:34;6.35;;;2.60;;
67902;SDS011;54708;43.612;1.568;2022-10-16T14:38:01;8.60;;;3.00;;
67902;SDS011;54708;43.612;1.568;2022-10-16T14:40:32;4.97;;;2.60;;
67902;SDS011;54708;43.612;1.568;2022-10-16T14:42:59;9.95;;;2.60;;
67902;SDS011;54708;43.612;1.568;2022-10-16T14:45:26;4.30;;;2.20;;
67902;SDS011;54708;43.612;1.568;2022-10-16T14:47:54;5.82;;;2.75;;
67902;SDS011;54708;43.612;1.568;2022-10-16T14:50:21;7.03;;;2.83;;
67902;SDS011;54708;43.612;1.568;2022-10-16T14:52:47;8.48;;;2.58;;
67902;SDS011;54708;43.612;1.568;2022-10-16T14:55:12;5.93;;;2.47;;
67902;SDS011;54708;43.612;1.568;2022-10-16T14:57:38;5.30;;;2.92;;
67902;SDS011;54708;43.612;1.568;2022-10-16T15:00:25;5.05;;;2.50;;
67902;SDS011;54708;43.612;1.568;2022-10-16T15:02:49;6.15;;;2.60;;
67902;SDS011;54708;43.612;1.568;2022-10-16T15:05:19;5.97;;;2.40;;
67902;SDS011;54708;43.612;1.568;2022-10-16T15:07:47;7.97;;;2.72;;
67902;SDS011;54708;43.612;1.568;2022-10-16T15:10:14;3.90;;;2.58;;
67902;SDS011;54708;43.612;1.568;2022-10-16T15:12:40;7.07;;;3.10;;
67902;SDS011;54708;43.612;1.568;2022-10-16T15:17:46;7.38;;;2.80;;
67902;SDS011;54708;43.612;1.568;2022-10-16T15:20:11;6.53;;;2.55;;
67902;SDS011;54708;43.612;1.568;2022-10-16T15:22:36;7.05;;;3.25;;
67902;SDS011;54708;43.612;1.568;2022-10-16T15:25:04;3.83;;;2.42;;
67902;SDS011;54708;43.612;1.568;2022-10-16T15:27:54;6.30;;;3.17;;
67902;SDS011;54708;43.612;1.568;2022-10-16T15:30:20;4.82;;;3.00;;
67902;SDS011;54708;43.612;1.568;2022-10-16T15:32:45;8.43;;;2.90;;
67902;SDS011;54708;43.612;1.568;2022-10-16T15:35:10;5.30;;;2.60;;
67902;SDS011;54708;43.612;1.568;2022-10-16T15:37:36;3.97;;;2.60;;
67902;SDS011;54708;43.612;1.568;2022-10-16T15:40:01;6.20;;;2.63;;
67902;SDS011;54708;43.612;1.568;2022-10-16T15:42:27;9.85;;;3.38;;
67902;SDS011;54708;43.612;1.568;2022-10-16T15:44:53;7.30;;;2.63;;
67902;SDS011;54708;43.612;1.568;2022-10-16T15:47:18;7.65;;;3.17;;
67902;SDS011;54708;43.612;1.568;2022-10-16T15:49:43;8.43;;;3.70;;
67902;SDS011;54708;43.612;1.568;2022-10-16T15:52:09;6.70;;;2.63;;
67902;SDS011;54708;43.612;1.568;2022-10-16T15:54:34;8.60;;;3.00;;
67902;SDS011;54708;43.612;1.568;2022-10-16T15:57:00;9.55;;;3.20;;
67902;SDS011;54708;43.612;1.568;2022-10-16T15:59:25;8.32;;;2.95;;
67902;SDS011;54708;43.612;1.568;2022-10-16T16:01:50;5.78;;;2.38;;
67902;SDS011;54708;43.612;1.568;2022-10-16T16:04:16;5.93;;;2.72;;
67902;SDS011;54708;43.612;1.568;2022-10-16T16:06:41;3.80;;;2.05;;
67902;SDS011;54708;43.612;1.568;2022-10-16T16:09:10;6.57;;;2.60;;
67902;SDS011;54708;43.612;1.568;2022-10-16T16:11:36;8.07;;;3.13;;
67902;SDS011;54708;43.612;1.568;2022-10-16T16:14:04;7.78;;;2.90;;
67902;SDS011;54708;43.612;1.568;2022-10-16T16:16:30;12.75;;;2.92;;
67902;SDS011;54708;43.612;1.568;2022-10-16T16:18:56;6.20;;;2.10;;
67902;SDS011;54708;43.612;1.568;2022-10-16T16:21:22;6.28;;;2.80;;
67902;SDS011;54708;43.612;1.568;2022-10-16T16:23:47;7.68;;;2.53;;
67902;SDS011;54708;43.612;1.568;2022-10-16T16:26:14;6.00;;;2.00;;
67902;SDS011;54708;43.612;1.568;2022-10-16T16:28:41;4.80;;;3.53;;
67902;SDS011;54708;43.612;1.568;2022-10-16T16:31:07;11.30;;;2.92;;
67902;SDS011;54708;43.612;1.568;2022-10-16T16:33:33;9.25;;;3.70;;
67902;SDS011;54708;43.612;1.568;2022-10-16T16:35:59;7.70;;;2.80;;
67902;SDS011;54708;43.612;1.568;2022-10-16T16:38:26;6.53;;;2.67;;
67902;SDS011;54708;43.612;1.568;2022-10-16T16:40:52;9.60;;;3.90;;
67902;SDS011;54708;43.612;1.568;2022-10-16T16:43:18;6.65;;;2.47;;
67902;SDS011;54708;43.612;1.568;2022-10-16T16:45:44;5.68;;;2.67;;
67902;SDS011;54708;43.612;1.568;2022-10-16T16:48:10;5.93;;;3.15;;
67902;SDS011;54708;43.612;1.568;2022-10-16T16:50:36;5.55;;;3.60;;